Terminal Aerodrome Forecast
Issued by NWS New Orleans/Baton Rouge, LA

Home | Current Version | Previous Version | Text Only | Print | Product List | Glossary On
Versions: 1 2 3 4 5 6 7 8 9 10 11 12 13 14 15 16 17 18 19 20 21 22 23 24 25
000
FTUS44 KLIX 181700
TAFNEW
TAF
KNEW 181721Z 1818/1918 13005KT P6SM SCT030 OVC250
     FM182300 13005KT P6SM VCTS BKN030CB
     FM190800 09004KT P6SM SCT100
     FM191500 09008KT P6SM SCT020=

USA.gov is the U.S. government's official web portal to all federal, state and local government web resources and services.